Mechanicsville, Virginia
Current Conditions -  °F | °C
As of 12:54 AM on Thursday 23 Oct 2014 (Local Time) from KOFP Reporting Station
Broken Clouds Broken Clouds  
Wind Chill: 52°   Ceiling: 4400
Heat Index: 52°   Visibility: 10mi
Dew Point: 42°   Wind: 7mph
Humidity: 69%   Direction: 320°NW
Pressure: 29.96"   Gusts: NA
Location:  37.61°N, 77.38°W
Report Text: KOFP 230454Z AUTO 32006KT 10SM BKN044 11/06 A2996 RMK AO2 SLP145 T01110056 401330106
Loading
Personal Weather Stations






























Interactive Weather Map New forecast layout! Learn more

10-Day Weather Forecast

Advertisements
Track Severe Weather on mobile